sensor_id;sensor_type;location;lat;lon;timestamp;pressure;altitude;pressure_sealevel;temperature;humidity
67397;BME280;57728;50.448;18.824;2024-01-27T00:01:28;98227.66;;;4.84;76.48
67397;BME280;57728;50.448;18.824;2024-01-27T00:03:29;98228.31;;;4.86;76.79
67397;BME280;57728;50.448;18.824;2024-01-27T00:05:31;98227.84;;;4.82;76.96
67397;BME280;57728;50.448;18.824;2024-01-27T00:07:35;98233.69;;;4.86;76.86
67397;BME280;57728;50.448;18.824;2024-01-27T00:09:36;98240.78;;;4.87;76.82
67397;BME280;57728;50.448;18.824;2024-01-27T00:11:41;98260.47;;;4.88;76.43
67397;BME280;57728;50.448;18.824;2024-01-27T00:13:45;98277.34;;;4.90;76.28
67397;BME280;57728;50.448;18.824;2024-01-27T00:15:47;98254.44;;;4.86;76.05
67397;BME280;57728;50.448;18.824;2024-01-27T00:17:48;98268.22;;;4.91;75.74
67397;BME280;57728;50.448;18.824;2024-01-27T00:19:51;98265.13;;;4.94;75.22
67397;BME280;57728;50.448;18.824;2024-01-27T00:21:52;98272.84;;;4.97;75.08
67397;BME280;57728;50.448;18.824;2024-01-27T00:23:53;98299.84;;;4.97;74.72
67397;BME280;57728;50.448;18.824;2024-01-27T00:25:56;98289.88;;;4.97;74.59
67397;BME280;57728;50.448;18.824;2024-01-27T00:27:57;98279.06;;;4.97;73.88
67397;BME280;57728;50.448;18.824;2024-01-27T00:29:58;98281.59;;;4.99;73.31
67397;BME280;57728;50.448;18.824;2024-01-27T00:32:00;98285.56;;;5.03;73.21
67397;BME280;57728;50.448;18.824;2024-01-27T00:34:01;98285.22;;;5.06;73.10
67397;BME280;57728;50.448;18.824;2024-01-27T00:36:03;98296.66;;;5.08;73.14
67397;BME280;57728;50.448;18.824;2024-01-27T00:38:05;98253.63;;;4.85;73.32
67397;BME280;57728;50.448;18.824;2024-01-27T00:40:10;98199.25;;;4.52;73.10
67397;BME280;57728;50.448;18.824;2024-01-27T00:42:12;98309.56;;;5.13;73.04
67397;BME280;57728;50.448;18.824;2024-01-27T00:44:14;98281.22;;;5.02;73.07
67397;BME280;57728;50.448;18.824;2024-01-27T00:46:15;98319.16;;;5.15;72.90
67397;BME280;57728;50.448;18.824;2024-01-27T00:48:16;98322.25;;;5.12;72.53
67397;BME280;57728;50.448;18.824;2024-01-27T00:50:18;98306.16;;;5.04;72.44
67397;BME280;57728;50.448;18.824;2024-01-27T00:52:22;98303.34;;;5.12;72.56
67397;BME280;57728;50.448;18.824;2024-01-27T00:54:23;98306.44;;;5.09;72.49
67397;BME280;57728;50.448;18.824;2024-01-27T00:56:27;98312.94;;;5.15;72.25
67397;BME280;57728;50.448;18.824;2024-01-27T00:58:28;98323.94;;;5.13;72.44
67397;BME280;57728;50.448;18.824;2024-01-27T01:00:29;98319.94;;;5.09;72.02
67397;BME280;57728;50.448;18.824;2024-01-27T01:02:31;98326.88;;;5.19;72.23
67397;BME280;57728;50.448;18.824;2024-01-27T01:04:32;98343.72;;;5.21;71.89
67397;BME280;57728;50.448;18.824;2024-01-27T01:06:34;98342.88;;;5.20;71.94
67397;BME280;57728;50.448;18.824;2024-01-27T01:08:35;98315.94;;;5.05;71.98
67397;BME280;57728;50.448;18.824;2024-01-27T01:10:39;98348.38;;;5.27;72.09
67397;BME280;57728;50.448;18.824;2024-01-27T01:12:40;98333.84;;;5.28;71.96
67397;BME280;57728;50.448;18.824;2024-01-27T01:14:45;98340.28;;;5.27;71.71
67397;BME280;57728;50.448;18.824;2024-01-27T01:16:46;98351.25;;;5.25;71.75
67397;BME280;57728;50.448;18.824;2024-01-27T01:18:47;98330.88;;;5.23;71.49
67397;BME280;57728;50.448;18.824;2024-01-27T01:20:49;98334.78;;;5.20;71.12
67397;BME280;57728;50.448;18.824;2024-01-27T01:22:50;98295.84;;;4.93;71.12
67397;BME280;57728;50.448;18.824;2024-01-27T01:24:52;98322.88;;;5.14;70.74
67397;BME280;57728;50.448;18.824;2024-01-27T01:26:54;98342.81;;;5.13;70.21
67397;BME280;57728;50.448;18.824;2024-01-27T01:28:55;98307.84;;;4.90;70.15
67397;BME280;57728;50.448;18.824;2024-01-27T01:30:56;98317.63;;;4.91;70.02
67397;BME280;57728;50.448;18.824;2024-01-27T01:32:58;98335.94;;;5.11;70.21
67397;BME280;57728;50.448;18.824;2024-01-27T01:34:59;98335.06;;;5.10;69.95
67397;BME280;57728;50.448;18.824;2024-01-27T01:37:00;98344.41;;;5.08;69.61
67397;BME280;57728;50.448;18.824;2024-01-27T01:39:04;98354.34;;;5.07;69.43
67397;BME280;57728;50.448;18.824;2024-01-27T01:41:05;98340.22;;;5.05;69.58
67397;BME280;57728;50.448;18.824;2024-01-27T01:43:10;98330.53;;;4.96;68.85
67397;BME280;57728;50.448;18.824;2024-01-27T01:45:15;98353.72;;;5.05;68.78
67397;BME280;57728;50.448;18.824;2024-01-27T01:47:18;98366.34;;;5.05;68.68
67397;BME280;57728;50.448;18.824;2024-01-27T01:49:19;98351.00;;;5.05;68.52
67397;BME280;57728;50.448;18.824;2024-01-27T01:51:22;98356.31;;;4.98;68.46
67397;BME280;57728;50.448;18.824;2024-01-27T01:53:23;98362.19;;;5.02;68.42
67397;BME280;57728;50.448;18.824;2024-01-27T01:55:24;98361.72;;;4.98;68.31
67397;BME280;57728;50.448;18.824;2024-01-27T01:57:26;98360.97;;;4.90;68.02
67397;BME280;57728;50.448;18.824;2024-01-27T01:59:28;98359.56;;;4.94;68.11
67397;BME280;57728;50.448;18.824;2024-01-27T02:01:29;98359.56;;;4.94;67.98
67397;BME280;57728;50.448;18.824;2024-01-27T02:03:31;98370.09;;;4.89;68.04
67397;BME280;57728;50.448;18.824;2024-01-27T02:05:32;98262.94;;;4.23;68.11
67397;BME280;57728;50.448;18.824;2024-01-27T02:07:33;98349.63;;;4.79;68.42
67397;BME280;57728;50.448;18.824;2024-01-27T02:09:35;98351.56;;;4.86;68.37
67397;BME280;57728;50.448;18.824;2024-01-27T02:11:36;98353.63;;;4.84;68.72
67397;BME280;57728;50.448;18.824;2024-01-27T02:13:37;98368.97;;;4.83;68.69
67397;BME280;57728;50.448;18.824;2024-01-27T02:15:39;98351.09;;;4.82;68.95
67397;BME280;57728;50.448;18.824;2024-01-27T02:17:41;98361.06;;;4.81;69.17
67397;BME280;57728;50.448;18.824;2024-01-27T02:19:42;98371.03;;;4.81;69.16
67397;BME280;57728;50.448;18.824;2024-01-27T02:21:44;98382.00;;;4.79;69.12
67397;BME280;57728;50.448;18.824;2024-01-27T02:23:45;98375.56;;;4.80;69.26
67397;BME280;57728;50.448;18.824;2024-01-27T02:25:46;98380.63;;;4.84;69.39
67397;BME280;57728;50.448;18.824;2024-01-27T02:27:49;98375.22;;;4.84;69.52
67397;BME280;57728;50.448;18.824;2024-01-27T02:29:50;98368.13;;;4.82;69.42
67397;BME280;57728;50.448;18.824;2024-01-27T02:31:51;98381.25;;;4.86;69.70
67397;BME280;57728;50.448;18.824;2024-01-27T02:33:53;98370.28;;;4.87;69.69
67397;BME280;57728;50.448;18.824;2024-01-27T02:35:54;98381.06;;;4.87;69.71
67397;BME280;57728;50.448;18.824;2024-01-27T02:37:55;98371.75;;;4.90;69.87
67397;BME280;57728;50.448;18.824;2024-01-27T02:39:57;98374.16;;;4.85;69.59
67397;BME280;57728;50.448;18.824;2024-01-27T02:41:59;98385.44;;;4.88;69.79
67397;BME280;57728;50.448;18.824;2024-01-27T02:44:00;98388.13;;;4.88;69.78
67397;BME280;57728;50.448;18.824;2024-01-27T02:46:02;98386.84;;;4.84;69.68
67397;BME280;57728;50.448;18.824;2024-01-27T02:48:05;98401.25;;;4.91;69.79
67397;BME280;57728;50.448;18.824;2024-01-27T02:50:07;98395.22;;;4.89;70.00
67397;BME280;57728;50.448;18.824;2024-01-27T02:52:09;98385.69;;;4.93;69.91
67397;BME280;57728;50.448;18.824;2024-01-27T02:54:10;98389.25;;;4.94;70.05
67397;BME280;57728;50.448;18.824;2024-01-27T02:56:12;98394.28;;;4.97;69.91
67397;BME280;57728;50.448;18.824;2024-01-27T02:58:13;98389.25;;;4.94;69.78
67397;BME280;57728;50.448;18.824;2024-01-27T03:00:15;98405.63;;;4.92;69.56
67397;BME280;57728;50.448;18.824;2024-01-27T03:02:17;98399.19;;;4.93;69.79
67397;BME280;57728;50.448;18.824;2024-01-27T03:04:18;98402.47;;;4.89;69.71
67397;BME280;57728;50.448;18.824;2024-01-27T03:06:19;98403.38;;;4.96;69.68
67397;BME280;57728;50.448;18.824;2024-01-27T03:08:21;98414.56;;;4.93;69.62
67397;BME280;57728;50.448;18.824;2024-01-27T03:10:22;98406.84;;;4.90;69.69
67397;BME280;57728;50.448;18.824;2024-01-27T03:12:25;98418.47;;;4.90;69.91
67397;BME280;57728;50.448;18.824;2024-01-27T03:14:27;98406.84;;;4.90;69.91
67397;BME280;57728;50.448;18.824;2024-01-27T03:16:28;98409.53;;;4.90;69.89
67397;BME280;57728;50.448;18.824;2024-01-27T03:18:29;98428.63;;;4.88;69.74
67397;BME280;57728;50.448;18.824;2024-01-27T03:20:32;98425.06;;;4.88;69.80
67397;BME280;57728;50.448;18.824;2024-01-27T03:22:33;98428.69;;;4.80;69.83
67397;BME280;57728;50.448;18.824;2024-01-27T03:24:34;98437.41;;;4.82;70.11
67397;BME280;57728;50.448;18.824;2024-01-27T03:26:36;98425.63;;;4.83;70.09
67397;BME280;57728;50.448;18.824;2024-01-27T03:28:37;98415.09;;;4.73;70.22
67397;BME280;57728;50.448;18.824;2024-01-27T03:30:39;98445.25;;;4.77;70.58
67397;BME280;57728;50.448;18.824;2024-01-27T03:32:41;98445.44;;;4.75;70.54
67397;BME280;57728;50.448;18.824;2024-01-27T03:34:45;98432.09;;;4.59;70.68
67397;BME280;57728;50.448;18.824;2024-01-27T03:36:49;98466.72;;;4.70;70.71
67397;BME280;57728;50.448;18.824;2024-01-27T03:38:52;98463.00;;;4.71;70.74
67397;BME280;57728;50.448;18.824;2024-01-27T03:40:54;98441.78;;;4.68;70.71
67397;BME280;57728;50.448;18.824;2024-01-27T03:42:55;98453.09;;;4.63;70.59
67397;BME280;57728;50.448;18.824;2024-01-27T03:44:57;98453.28;;;4.62;70.68
67397;BME280;57728;50.448;18.824;2024-01-27T03:46:58;98451.28;;;4.64;70.88
67397;BME280;57728;50.448;18.824;2024-01-27T03:48:59;98447.91;;;4.62;70.93
67397;BME280;57728;50.448;18.824;2024-01-27T03:51:01;98427.91;;;4.56;70.94
67397;BME280;57728;50.448;18.824;2024-01-27T03:53:03;98437.38;;;4.52;70.81
67397;BME280;57728;50.448;18.824;2024-01-27T03:55:05;98357.47;;;3.98;70.74
67397;BME280;57728;50.448;18.824;2024-01-27T03:57:07;98431.44;;;4.57;70.88
67397;BME280;57728;50.448;18.824;2024-01-27T03:59:08;98443.25;;;4.56;70.80
67397;BME280;57728;50.448;18.824;2024-01-27T04:01:11;98410.78;;;4.49;70.40
67397;BME280;57728;50.448;18.824;2024-01-27T04:03:13;98434.84;;;4.51;70.57
67397;BME280;57728;50.448;18.824;2024-01-27T04:05:14;98446.19;;;4.46;70.52
67397;BME280;57728;50.448;18.824;2024-01-27T04:07:16;98449.72;;;4.46;70.41
67397;BME280;57728;50.448;18.824;2024-01-27T04:09:18;98462.69;;;4.51;70.60
67397;BME280;57728;50.448;18.824;2024-01-27T04:11:20;98476.31;;;4.50;70.66
67397;BME280;57728;50.448;18.824;2024-01-27T04:13:22;98452.03;;;4.35;70.49
67397;BME280;57728;50.448;18.824;2024-01-27T04:15:24;98479.50;;;4.53;70.39
67397;BME280;57728;50.448;18.824;2024-01-27T04:17:25;98474.09;;;4.53;70.19
67397;BME280;57728;50.448;18.824;2024-01-27T04:19:26;98472.25;;;4.54;70.23
67397;BME280;57728;50.448;18.824;2024-01-27T04:21:28;98482.00;;;4.55;70.40
67397;BME280;57728;50.448;18.824;2024-01-27T04:23:31;98470.59;;;4.53;70.40
67397;BME280;57728;50.448;18.824;2024-01-27T04:25:34;98461.88;;;4.42;69.98
67397;BME280;57728;50.448;18.824;2024-01-27T04:27:37;98483.75;;;4.47;69.83
67397;BME280;57728;50.448;18.824;2024-01-27T04:29:43;98486.28;;;4.49;69.93
67397;BME280;57728;50.448;18.824;2024-01-27T04:31:44;98410.47;;;4.06;69.91
67397;BME280;57728;50.448;18.824;2024-01-27T04:33:46;98494.19;;;4.51;69.87
67397;BME280;57728;50.448;18.824;2024-01-27T04:35:47;98468.78;;;4.45;69.89
67397;BME280;57728;50.448;18.824;2024-01-27T04:37:48;98498.19;;;4.55;69.53
67397;BME280;57728;50.448;18.824;2024-01-27T04:39:50;98497.81;;;4.58;69.58
67397;BME280;57728;50.448;18.824;2024-01-27T04:41:51;98479.88;;;4.50;69.35
67397;BME280;57728;50.448;18.824;2024-01-27T04:43:53;98481.25;;;4.46;69.03
67397;BME280;57728;50.448;18.824;2024-01-27T04:45:57;98485.56;;;4.55;68.76
67397;BME280;57728;50.448;18.824;2024-01-27T04:47:58;98495.31;;;4.56;68.94
67397;BME280;57728;50.448;18.824;2024-01-27T04:50:01;98495.31;;;4.56;68.78
67397;BME280;57728;50.448;18.824;2024-01-27T04:52:05;98493.09;;;4.60;68.65
67397;BME280;57728;50.448;18.824;2024-01-27T04:54:08;98478.94;;;4.58;68.35
67397;BME280;57728;50.448;18.824;2024-01-27T04:56:11;98477.88;;;4.44;68.30
67397;BME280;57728;50.448;18.824;2024-01-27T04:58:14;98469.97;;;4.42;68.13
67397;BME280;57728;50.448;18.824;2024-01-27T05:00:15;98492.16;;;4.53;68.13
67397;BME280;57728;50.448;18.824;2024-01-27T05:02:18;98502.22;;;4.59;68.02
67397;BME280;57728;50.448;18.824;2024-01-27T05:04:20;98501.38;;;4.58;67.67
67397;BME280;57728;50.448;18.824;2024-01-27T05:06:21;98496.16;;;4.57;67.48
67397;BME280;57728;50.448;18.824;2024-01-27T05:08:23;98508.44;;;4.59;67.50
67397;BME280;57728;50.448;18.824;2024-01-27T05:10:25;98452.25;;;4.25;67.21
67397;BME280;57728;50.448;18.824;2024-01-27T05:12:26;98510.66;;;4.56;67.42
67397;BME280;57728;50.448;18.824;2024-01-27T05:14:27;98491.78;;;4.56;67.41
67397;BME280;57728;50.448;18.824;2024-01-27T05:16:31;98491.19;;;4.45;67.43
67397;BME280;57728;50.448;18.824;2024-01-27T05:18:34;98498.56;;;4.52;67.23
67397;BME280;57728;50.448;18.824;2024-01-27T05:20:35;98511.69;;;4.55;67.17
67397;BME280;57728;50.448;18.824;2024-01-27T05:22:37;98518.09;;;4.54;67.56
67397;BME280;57728;50.448;18.824;2024-01-27T05:24:38;98517.25;;;4.53;67.30
67397;BME280;57728;50.448;18.824;2024-01-27T05:26:40;98505.16;;;4.49;66.83
67397;BME280;57728;50.448;18.824;2024-01-27T05:28:42;98524.84;;;4.50;67.11
67397;BME280;57728;50.448;18.824;2024-01-27T05:30:44;98512.41;;;4.48;66.88
67397;BME280;57728;50.448;18.824;2024-01-27T05:32:49;98514.06;;;4.50;66.86
67397;BME280;57728;50.448;18.824;2024-01-27T05:34:51;98503.19;;;4.43;66.95
67397;BME280;57728;50.448;18.824;2024-01-27T05:36:52;98510.72;;;4.47;66.69
67397;BME280;57728;50.448;18.824;2024-01-27T05:38:53;98500.53;;;4.35;66.58
67397;BME280;57728;50.448;18.824;2024-01-27T05:40:55;98504.38;;;4.40;66.61
67397;BME280;57728;50.448;18.824;2024-01-27T05:42:56;98518.16;;;4.45;66.54
67397;BME280;57728;50.448;18.824;2024-01-27T05:44:57;98482.41;;;4.28;66.71
67397;BME280;57728;50.448;18.824;2024-01-27T05:46:59;98512.78;;;4.45;66.83
67397;BME280;57728;50.448;18.824;2024-01-27T05:49:01;98509.03;;;4.46;66.75
67397;BME280;57728;50.448;18.824;2024-01-27T05:51:03;98509.41;;;4.43;66.67
67397;BME280;57728;50.448;18.824;2024-01-27T05:53:06;98513.09;;;4.42;66.56
67397;BME280;57728;50.448;18.824;2024-01-27T05:55:07;98521.38;;;4.41;66.34
67397;BME280;57728;50.448;18.824;2024-01-27T05:57:09;98521.19;;;4.42;66.63
67397;BME280;57728;50.448;18.824;2024-01-27T05:59:11;98513.09;;;4.42;66.38
67397;BME280;57728;50.448;18.824;2024-01-27T06:01:12;98526.59;;;4.42;66.09
67397;BME280;57728;50.448;18.824;2024-01-27T06:03:14;98514.34;;;4.40;66.10
67397;BME280;57728;50.448;18.824;2024-01-27T06:05:17;98479.81;;;4.12;66.20
67397;BME280;57728;50.448;18.824;2024-01-27T06:07:18;98539.09;;;4.35;65.98
67397;BME280;57728;50.448;18.824;2024-01-27T06:09:19;98524.97;;;4.33;65.98
67397;BME280;57728;50.448;18.824;2024-01-27T06:11:25;98528.50;;;4.34;65.93
67397;BME280;57728;50.448;18.824;2024-01-27T06:13:27;98532.72;;;4.36;66.13
67397;BME280;57728;50.448;18.824;2024-01-27T06:15:28;98550.38;;;4.39;65.92
67397;BME280;57728;50.448;18.824;2024-01-27T06:17:30;98516.44;;;4.21;65.66
67397;BME280;57728;50.448;18.824;2024-01-27T06:19:31;98536.97;;;4.30;65.91
67397;BME280;57728;50.448;18.824;2024-01-27T06:21:33;98542.84;;;4.34;65.91
67397;BME280;57728;50.448;18.824;2024-01-27T06:23:35;98519.69;;;4.17;65.90
67397;BME280;57728;50.448;18.824;2024-01-27T06:25:36;98551.94;;;4.33;65.90
67397;BME280;57728;50.448;18.824;2024-01-27T06:27:37;98549.59;;;4.30;65.88
67397;BME280;57728;50.448;18.824;2024-01-27T06:29:39;98506.47;;;3.99;66.01
67397;BME280;57728;50.448;18.824;2024-01-27T06:31:42;98509.44;;;4.12;65.83
67397;BME280;57728;50.448;18.824;2024-01-27T06:33:43;98545.69;;;4.33;65.98
67397;BME280;57728;50.448;18.824;2024-01-27T06:35:45;98553.31;;;4.29;65.95
67397;BME280;57728;50.448;18.824;2024-01-27T06:37:46;98547.31;;;4.19;65.97
67397;BME280;57728;50.448;18.824;2024-01-27T06:39:48;98554.50;;;4.26;65.95
67397;BME280;57728;50.448;18.824;2024-01-27T06:41:50;98554.69;;;4.25;65.85
67397;BME280;57728;50.448;18.824;2024-01-27T06:43:51;98546.16;;;4.13;65.85
67397;BME280;57728;50.448;18.824;2024-01-27T06:45:52;98523.47;;;4.07;65.86
67397;BME280;57728;50.448;18.824;2024-01-27T06:47:54;98554.38;;;4.20;65.78
67397;BME280;57728;50.448;18.824;2024-01-27T06:49:55;98552.38;;;4.13;65.71
67397;BME280;57728;50.448;18.824;2024-01-27T06:51:56;98553.03;;;4.16;65.74
67397;BME280;57728;50.448;18.824;2024-01-27T06:53:58;98546.34;;;4.11;65.64
67397;BME280;57728;50.448;18.824;2024-01-27T06:55:59;98526.44;;;4.12;65.51
67397;BME280;57728;50.448;18.824;2024-01-27T06:58:00;98553.09;;;4.07;65.55
67397;BME280;57728;50.448;18.824;2024-01-27T07:00:03;98574.59;;;4.16;65.60
67397;BME280;57728;50.448;18.824;2024-01-27T07:02:04;98573.75;;;4.15;65.44
67397;BME280;57728;50.448;18.824;2024-01-27T07:04:05;98584.38;;;4.17;65.62
67397;BME280;57728;50.448;18.824;2024-01-27T07:06:07;98587.56;;;4.20;65.49
67397;BME280;57728;50.448;18.824;2024-01-27T07:08:09;98489.13;;;3.70;65.69
67397;BME280;57728;50.448;18.824;2024-01-27T07:10:10;98573.53;;;4.25;65.31
67397;BME280;57728;50.448;18.824;2024-01-27T07:12:12;98559.09;;;4.18;65.17
67397;BME280;57728;50.448;18.824;2024-01-27T07:14:13;98449.09;;;3.67;64.95
67397;BME280;57728;50.448;18.824;2024-01-27T07:16:15;98562.44;;;4.20;64.97
67397;BME280;57728;50.448;18.824;2024-01-27T07:18:17;98555.72;;;4.16;64.83
67397;BME280;57728;50.448;18.824;2024-01-27T07:20:20;98569.06;;;4.17;64.99
67397;BME280;57728;50.448;18.824;2024-01-27T07:22:25;98549.38;;;4.08;64.85
67397;BME280;57728;50.448;18.824;2024-01-27T07:24:27;98555.28;;;4.04;64.85
67397;BME280;57728;50.448;18.824;2024-01-27T07:26:28;98550.91;;;4.03;64.62
67397;BME280;57728;50.448;18.824;2024-01-27T07:28:30;98566.03;;;4.12;64.61
67397;BME280;57728;50.448;18.824;2024-01-27T07:30:32;98565.53;;;4.08;64.54
67397;BME280;57728;50.448;18.824;2024-01-27T07:32:33;98546.25;;;3.96;64.79
67397;BME280;57728;50.448;18.824;2024-01-27T07:34:34;98554.47;;;4.03;64.51
67397;BME280;57728;50.448;18.824;2024-01-27T07:36:36;98556.28;;;4.11;64.58
67397;BME280;57728;50.448;18.824;2024-01-27T07:38:37;98565.22;;;4.11;64.32
67397;BME280;57728;50.448;18.824;2024-01-27T07:40:38;98582.75;;;4.07;64.47
67397;BME280;57728;50.448;18.824;2024-01-27T07:42:40;98586.41;;;4.15;64.44
67397;BME280;57728;50.448;18.824;2024-01-27T07:44:42;98579.97;;;4.16;64.26
67397;BME280;57728;50.448;18.824;2024-01-27T07:46:43;98486.66;;;3.60;64.35
67397;BME280;57728;50.448;18.824;2024-01-27T07:48:45;98580.16;;;4.14;64.40
67397;BME280;57728;50.448;18.824;2024-01-27T07:50:46;98526.22;;;3.91;64.13
67397;BME280;57728;50.448;18.824;2024-01-27T07:52:49;98593.31;;;4.17;64.07
67397;BME280;57728;50.448;18.824;2024-01-27T07:54:51;98558.56;;;3.91;64.19
67397;BME280;57728;50.448;18.824;2024-01-27T07:56:52;98564.44;;;3.94;63.93
67397;BME280;57728;50.448;18.824;2024-01-27T07:58:53;98607.25;;;4.21;63.71
67397;BME280;57728;50.448;18.824;2024-01-27T08:00:55;98597.31;;;4.21;63.75
67397;BME280;57728;50.448;18.824;2024-01-27T08:02:57;98614.34;;;4.22;63.64
67397;BME280;57728;50.448;18.824;2024-01-27T08:04:58;98572.66;;;4.01;63.72
67397;BME280;57728;50.448;18.824;2024-01-27T08:07:00;98599.16;;;4.21;63.91
67397;BME280;57728;50.448;18.824;2024-01-27T08:09:06;98584.00;;;4.20;63.63
67397;BME280;57728;50.448;18.824;2024-01-27T08:11:07;98596.22;;;4.07;63.51
67397;BME280;57728;50.448;18.824;2024-01-27T08:13:09;98580.34;;;4.12;63.42
67397;BME280;57728;50.448;18.824;2024-01-27T08:15:12;98490.03;;;3.54;63.82
67397;BME280;57728;50.448;18.824;2024-01-27T08:17:13;98575.50;;;4.08;64.01
67397;BME280;57728;50.448;18.824;2024-01-27T08:19:15;98573.72;;;3.92;64.47
67397;BME280;57728;50.448;18.824;2024-01-27T08:21:20;98574.19;;;3.95;64.82
67397;BME280;57728;50.448;18.824;2024-01-27T08:23:22;98594.03;;;4.03;65.35
67397;BME280;57728;50.448;18.824;2024-01-27T08:25:25;98593.56;;;3.99;65.85
67397;BME280;57728;50.448;18.824;2024-01-27T08:27:26;98569.53;;;3.81;66.04
67397;BME280;57728;50.448;18.824;2024-01-27T08:29:29;98609.91;;;3.89;66.69
67397;BME280;57728;50.448;18.824;2024-01-27T08:31:31;98579.50;;;3.72;67.06
67397;BME280;57728;50.448;18.824;2024-01-27T08:33:32;98615.16;;;3.83;67.68
67397;BME280;57728;50.448;18.824;2024-01-27T08:35:33;98624.59;;;3.70;68.41
67397;BME280;57728;50.448;18.824;2024-01-27T08:37:35;98601.91;;;3.65;68.90
67397;BME280;57728;50.448;18.824;2024-01-27T08:39:39;98572.00;;;3.43;69.48
67397;BME280;57728;50.448;18.824;2024-01-27T08:41:40;98566.00;;;3.24;70.05
67397;BME280;57728;50.448;18.824;2024-01-27T08:43:42;98590.38;;;3.39;70.50
67397;BME280;57728;50.448;18.824;2024-01-27T08:45:43;98604.81;;;3.47;70.77
67397;BME280;57728;50.448;18.824;2024-01-27T08:47:45;98588.16;;;3.43;71.09
67397;BME280;57728;50.448;18.824;2024-01-27T08:49:47;98604.47;;;3.41;71.47
67397;BME280;57728;50.448;18.824;2024-01-27T08:51:48;98604.47;;;3.41;71.57
67397;BME280;57728;50.448;18.824;2024-01-27T08:53:49;98598.94;;;3.43;71.65
67397;BME280;57728;50.448;18.824;2024-01-27T08:55:51;98598.09;;;3.42;71.84
67397;BME280;57728;50.448;18.824;2024-01-27T08:57:52;98599.28;;;3.40;72.04
67397;BME280;57728;50.448;18.824;2024-01-27T08:59:53;98587.88;;;3.30;72.57
67397;BME280;57728;50.448;18.824;2024-01-27T09:01:55;98613.25;;;3.27;72.65
67397;BME280;57728;50.448;18.824;2024-01-27T09:03:56;98571.56;;;3.06;72.93
67397;BME280;57728;50.448;18.824;2024-01-27T09:05:57;98617.28;;;3.23;73.82
67397;BME280;57728;50.448;18.824;2024-01-27T09:07:59;98618.66;;;3.19;74.38
67397;BME280;57728;50.448;18.824;2024-01-27T09:10:01;98612.44;;;3.18;74.54
67397;BME280;57728;50.448;18.824;2024-01-27T09:12:03;98633.44;;;3.15;74.91
67397;BME280;57728;50.448;18.824;2024-01-27T09:14:05;98623.03;;;3.12;75.15
67397;BME280;57728;50.448;18.824;2024-01-27T09:16:08;98618.81;;;3.01;75.49
67397;BME280;57728;50.448;18.824;2024-01-27T09:18:13;98537.28;;;2.51;75.80
67397;BME280;57728;50.448;18.824;2024-01-27T09:20:16;98599.50;;;2.97;76.10
67397;BME280;57728;50.448;18.824;2024-01-27T09:22:17;98604.88;;;2.97;76.48
67397;BME280;57728;50.448;18.824;2024-01-27T09:24:19;98620.84;;;2.99;76.57
67397;BME280;57728;50.448;18.824;2024-01-27T09:26:21;98613.94;;;2.96;76.80
67397;BME280;57728;50.448;18.824;2024-01-27T09:28:23;98618.50;;;2.96;76.95
67397;BME280;57728;50.448;18.824;2024-01-27T09:30:24;98599.81;;;2.86;77.09
67397;BME280;57728;50.448;18.824;2024-01-27T09:32:26;98582.31;;;2.73;77.28
67397;BME280;57728;50.448;18.824;2024-01-27T09:34:27;98626.03;;;2.92;77.45
67397;BME280;57728;50.448;18.824;2024-01-27T09:36:29;98606.56;;;2.90;77.67
67397;BME280;57728;50.448;18.824;2024-01-27T09:38:31;98550.56;;;2.61;77.81
67397;BME280;57728;50.448;18.824;2024-01-27T09:40:32;98598.13;;;2.85;77.80
67397;BME280;57728;50.448;18.824;2024-01-27T09:42:34;98610.91;;;2.91;77.93
67397;BME280;57728;50.448;18.824;2024-01-27T09:44:38;98617.63;;;2.95;77.91
67397;BME280;57728;50.448;18.824;2024-01-27T09:46:45;98602.16;;;2.89;78.09
67397;BME280;57728;50.448;18.824;2024-01-27T09:48:48;98591.41;;;2.89;78.39
67397;BME280;57728;50.448;18.824;2024-01-27T09:50:52;98598.78;;;2.87;78.51
67397;BME280;57728;50.448;18.824;2024-01-27T09:52:55;98580.00;;;2.79;78.47
67397;BME280;57728;50.448;18.824;2024-01-27T09:54:56;98605.53;;;3.07;78.45
67397;BME280;57728;50.448;18.824;2024-01-27T09:57:00;98592.41;;;3.13;78.28
67397;BME280;57728;50.448;18.824;2024-01-27T09:59:05;98557.44;;;2.88;78.05
67397;BME280;57728;50.448;18.824;2024-01-27T10:01:08;98596.94;;;3.12;77.77
67397;BME280;57728;50.448;18.824;2024-01-27T10:03:10;98595.25;;;3.19;77.87
67397;BME280;57728;50.448;18.824;2024-01-27T10:05:12;98572.91;;;3.10;77.68
67397;BME280;57728;50.448;18.824;2024-01-27T10:07:14;98551.38;;;3.02;77.65
67397;BME280;57728;50.448;18.824;2024-01-27T10:09:16;98581.25;;;3.40;77.42
67397;BME280;57728;50.448;18.824;2024-01-27T10:11:20;98582.97;;;3.33;77.17
67397;BME280;57728;50.448;18.824;2024-01-27T10:13:22;98546.69;;;3.13;76.55
67397;BME280;57728;50.448;18.824;2024-01-27T10:15:28;98528.50;;;3.06;76.41
67397;BME280;57728;50.448;18.824;2024-01-27T10:17:29;98580.22;;;3.58;76.45
67397;BME280;57728;50.448;18.824;2024-01-27T10:19:36;98594.34;;;3.60;75.98
67397;BME280;57728;50.448;18.824;2024-01-27T10:21:38;98590.28;;;3.64;76.06
67397;BME280;57728;50.448;18.824;2024-01-27T10:23:40;98602.41;;;3.68;76.09
67397;BME280;57728;50.448;18.824;2024-01-27T10:25:41;98585.94;;;3.55;75.79
67397;BME280;57728;50.448;18.824;2024-01-27T10:27:43;98619.72;;;3.74;75.68
67397;BME280;57728;50.448;18.824;2024-01-27T10:29:55;98602.41;;;3.68;75.78
67397;BME280;57728;50.448;18.824;2024-01-27T10:32:09;98584.28;;;3.54;75.69
67397;BME280;57728;50.448;18.824;2024-01-27T10:34:11;98601.06;;;3.64;75.70
67397;BME280;57728;50.448;18.824;2024-01-27T10:36:15;98616.53;;;3.70;75.69
67397;BME280;57728;50.448;18.824;2024-01-27T10:38:16;98606.09;;;3.67;75.57
67397;BME280;57728;50.448;18.824;2024-01-27T10:40:19;98619.59;;;3.59;75.73
67397;BME280;57728;50.448;18.824;2024-01-27T10:42:20;98615.38;;;3.65;75.94
67397;BME280;57728;50.448;18.824;2024-01-27T10:44:22;98623.63;;;3.63;76.01
67397;BME280;57728;50.448;18.824;2024-01-27T10:46:26;98632.03;;;3.60;76.10